sensor_id;sensor_type;location;lat;lon;timestamp;pressure;altitude;pressure_sealevel;temperature;humidity
10261;BME280;5175;42.606;23.388;2023-04-07T00:02:11;93493.09;;;1.93;60.92
10261;BME280;5175;42.606;23.388;2023-04-07T00:04:38;93497.34;;;1.94;60.47
10261;BME280;5175;42.606;23.388;2023-04-07T00:07:06;93477.91;;;1.83;60.51
10261;BME280;5175;42.606;23.388;2023-04-07T00:09:33;93491.06;;;1.95;60.59
10261;BME280;5175;42.606;23.388;2023-04-07T00:12:01;93494.16;;;1.92;60.25
10261;BME280;5175;42.606;23.388;2023-04-07T00:14:28;93493.56;;;1.90;59.88
10261;BME280;5175;42.606;23.388;2023-04-07T00:16:55;93504.06;;;1.90;59.89
10261;BME280;5175;42.606;23.388;2023-04-07T00:19:21;93495.16;;;1.91;60.11
10261;BME280;5175;42.606;23.388;2023-04-07T00:21:48;93494.03;;;1.87;59.65
10261;BME280;5175;42.606;23.388;2023-04-07T00:24:16;93487.72;;;1.88;59.95
10261;BME280;5175;42.606;23.388;2023-04-07T00:26:43;93490.59;;;1.86;59.76
10261;BME280;5175;42.606;23.388;2023-04-07T00:29:10;93497.22;;;1.89;59.01
10261;BME280;5175;42.606;23.388;2023-04-07T00:31:36;93497.34;;;1.94;58.97
10261;BME280;5175;42.606;23.388;2023-04-07T00:34:03;93493.09;;;1.93;58.52
10261;BME280;5175;42.606;23.388;2023-04-07T00:36:30;93489.78;;;1.98;58.67
10261;BME280;5175;42.606;23.388;2023-04-07T00:38:57;93486.13;;;1.99;58.20
10261;BME280;5175;42.606;23.388;2023-04-07T00:41:25;93503.81;;;2.03;57.20
10261;BME280;5175;42.606;23.388;2023-04-07T00:43:52;93491.16;;;2.00;57.83
10261;BME280;5175;42.606;23.388;2023-04-07T00:46:21;93490.66;;;2.03;57.68
10261;BME280;5175;42.606;23.388;2023-04-07T00:48:48;93493.53;;;2.02;57.50
10261;BME280;5175;42.606;23.388;2023-04-07T00:51:15;93479.59;;;2.01;57.49
10261;BME280;5175;42.606;23.388;2023-04-07T00:53:41;93487.25;;;2.03;58.18
10261;BME280;5175;42.606;23.388;2023-04-07T00:56:08;93493.78;;;2.00;57.47
10261;BME280;5175;42.606;23.388;2023-04-07T00:58:37;93497.44;;;1.99;57.16
10261;BME280;5175;42.606;23.388;2023-04-07T01:01:07;93490.00;;;1.96;58.06
10261;BME280;5175;42.606;23.388;2023-04-07T01:03:43;93491.84;;;1.96;57.71
10261;BME280;5175;42.606;23.388;2023-04-07T01:06:13;93482.91;;;1.97;57.84
10261;BME280;5175;42.606;23.388;2023-04-07T01:08:48;93489.19;;;1.96;57.63
10261;BME280;5175;42.606;23.388;2023-04-07T01:11:20;93484.75;;;1.96;57.82
10261;BME280;5175;42.606;23.388;2023-04-07T01:13:51;93485.09;;;2.00;57.67
10261;BME280;5175;42.606;23.388;2023-04-07T01:16:23;93498.81;;;2.02;57.39
10261;BME280;5175;42.606;23.388;2023-04-07T01:18:53;93493.63;;;2.07;56.87
10261;BME280;5175;42.606;23.388;2023-04-07T01:21:21;93471.03;;;1.94;56.89
10261;BME280;5175;42.606;23.388;2023-04-07T01:24:09;93487.91;;;2.10;57.11
10261;BME280;5175;42.606;23.388;2023-04-07T01:26:42;93490.19;;;2.06;56.20
10261;BME280;5175;42.606;23.388;2023-04-07T01:29:35;93478.31;;;2.04;56.36
10261;BME280;5175;42.606;23.388;2023-04-07T01:32:05;93480.25;;;2.08;56.34
10261;BME280;5175;42.606;23.388;2023-04-07T01:34:36;93480.25;;;2.08;56.26
10261;BME280;5175;42.606;23.388;2023-04-07T01:37:04;93480.34;;;2.13;55.81
10261;BME280;5175;42.606;23.388;2023-04-07T01:39:32;93469.03;;;2.13;55.92
10261;BME280;5175;42.606;23.388;2023-04-07T01:42:00;93470.31;;;2.10;55.46
10261;BME280;5175;42.606;23.388;2023-04-07T01:44:31;93475.75;;;2.20;55.18
10261;BME280;5175;42.606;23.388;2023-04-07T01:47:00;93476.66;;;2.26;55.43
10261;BME280;5175;42.606;23.388;2023-04-07T01:49:27;93463.16;;;2.22;54.62
10261;BME280;5175;42.606;23.388;2023-04-07T01:51:56;93476.16;;;2.29;55.21
10261;BME280;5175;42.606;23.388;2023-04-07T01:54:23;93469.53;;;2.26;55.12
10261;BME280;5175;42.606;23.388;2023-04-07T01:56:51;93465.16;;;2.32;54.94
10261;BME280;5175;42.606;23.388;2023-04-07T01:59:18;93470.13;;;2.28;55.31
10261;BME280;5175;42.606;23.388;2023-04-07T02:01:45;93464.63;;;2.30;55.08
10261;BME280;5175;42.606;23.388;2023-04-07T02:04:20;93457.06;;;2.33;54.20
10261;BME280;5175;42.606;23.388;2023-04-07T02:06:52;93467.69;;;2.38;54.45
10261;BME280;5175;42.606;23.388;2023-04-07T02:09:21;93451.28;;;2.36;54.84
10261;BME280;5175;42.606;23.388;2023-04-07T02:11:51;93456.19;;;2.44;54.02
10261;BME280;5175;42.606;23.388;2023-04-07T02:14:20;93462.59;;;2.48;53.85
10261;BME280;5175;42.606;23.388;2023-04-07T02:16:49;93459.16;;;2.48;54.63
10261;BME280;5175;42.606;23.388;2023-04-07T02:19:18;93459.63;;;2.45;54.71
10261;BME280;5175;42.606;23.388;2023-04-07T02:21:46;93462.63;;;2.37;55.20
10261;BME280;5175;42.606;23.388;2023-04-07T02:24:18;93444.38;;;2.30;54.80
10261;BME280;5175;42.606;23.388;2023-04-07T02:26:46;93454.91;;;2.47;54.55
10261;BME280;5175;42.606;23.388;2023-04-07T02:29:13;93461.06;;;2.52;54.42
10261;BME280;5175;42.606;23.388;2023-04-07T02:31:40;93460.97;;;2.47;54.89
10261;BME280;5175;42.606;23.388;2023-04-07T02:34:06;93451.97;;;2.43;54.61
10261;BME280;5175;42.606;23.388;2023-04-07T02:36:35;93453.09;;;2.47;54.59
10261;BME280;5175;42.606;23.388;2023-04-07T02:39:01;93455.38;;;2.44;54.56
10261;BME280;5175;42.606;23.388;2023-04-07T02:41:28;93450.28;;;2.37;54.73
10261;BME280;5175;42.606;23.388;2023-04-07T02:43:55;93449.63;;;2.30;55.00
10261;BME280;5175;42.606;23.388;2023-04-07T02:46:22;93454.63;;;2.32;55.24
10261;BME280;5175;42.606;23.388;2023-04-07T02:48:49;93457.06;;;2.33;55.06
10261;BME280;5175;42.606;23.388;2023-04-07T02:51:16;93461.50;;;2.33;55.35
10261;BME280;5175;42.606;23.388;2023-04-07T02:53:44;93438.56;;;2.17;55.22
10261;BME280;5175;42.606;23.388;2023-04-07T02:56:10;93449.63;;;2.30;55.25
10261;BME280;5175;42.606;23.388;2023-04-07T02:58:37;93467.44;;;2.40;55.34
10261;BME280;5175;42.606;23.388;2023-04-07T03:01:04;93473.72;;;2.39;54.76
10261;BME280;5175;42.606;23.388;2023-04-07T03:03:31;93467.69;;;2.38;55.24
10261;BME280;5175;42.606;23.388;2023-04-07T03:05:58;93461.81;;;2.36;55.05
10261;BME280;5175;42.606;23.388;2023-04-07T03:08:25;93462.97;;;2.40;54.93
10261;BME280;5175;42.606;23.388;2023-04-07T03:10:53;93471.41;;;2.42;55.28
10261;BME280;5175;42.606;23.388;2023-04-07T03:13:20;93473.03;;;2.43;55.39
10261;BME280;5175;42.606;23.388;2023-04-07T03:15:47;93457.16;;;2.38;55.38
10261;BME280;5175;42.606;23.388;2023-04-07T03:18:13;93471.75;;;2.46;55.72
10261;BME280;5175;42.606;23.388;2023-04-07T03:20:40;93475.28;;;2.51;56.09
10261;BME280;5175;42.606;23.388;2023-04-07T03:23:08;93457.16;;;2.38;56.51
10261;BME280;5175;42.606;23.388;2023-04-07T03:25:35;93465.88;;;2.56;56.40
10261;BME280;5175;42.606;23.388;2023-04-07T03:28:04;93467.22;;;2.58;56.65
10261;BME280;5175;42.606;23.388;2023-04-07T03:30:31;93466.75;;;2.61;56.87
10261;BME280;5175;42.606;23.388;2023-04-07T03:32:57;93469.47;;;2.66;56.57
10261;BME280;5175;42.606;23.388;2023-04-07T03:35:24;93461.03;;;2.64;56.72
10261;BME280;5175;42.606;23.388;2023-04-07T03:37:51;93470.19;;;2.62;56.79
10261;BME280;5175;42.606;23.388;2023-04-07T03:40:18;93464.25;;;2.54;56.81
10261;BME280;5175;42.606;23.388;2023-04-07T03:42:45;93461.78;;;2.48;56.88
10261;BME280;5175;42.606;23.388;2023-04-07T03:45:13;93464.06;;;2.44;56.97
10261;BME280;5175;42.606;23.388;2023-04-07T03:47:40;93447.13;;;2.24;57.17
10261;BME280;5175;42.606;23.388;2023-04-07T03:50:08;93468.78;;;2.42;57.39
10261;BME280;5175;42.606;23.388;2023-04-07T03:52:35;93467.19;;;2.13;57.50
10261;BME280;5175;42.606;23.388;2023-04-07T03:55:01;93469.00;;;1.84;58.77
10261;BME280;5175;42.606;23.388;2023-04-07T03:57:28;93471.91;;;1.60;59.67
10261;BME280;5175;42.606;23.388;2023-04-07T03:59:55;93467.09;;;1.57;59.34
10261;BME280;5175;42.606;23.388;2023-04-07T04:02:23;93457.88;;;1.31;60.67
10261;BME280;5175;42.606;23.388;2023-04-07T04:04:50;93464.38;;;1.28;60.96
10261;BME280;5175;42.606;23.388;2023-04-07T04:07:17;93472.38;;;1.34;60.90
10261;BME280;5175;42.606;23.388;2023-04-07T04:09:44;93446.81;;;1.17;61.51
10261;BME280;5175;42.606;23.388;2023-04-07T04:12:11;93456.75;;;1.27;61.49
10261;BME280;5175;42.606;23.388;2023-04-07T04:14:37;93472.41;;;1.22;61.85
10261;BME280;5175;42.606;23.388;2023-04-07T04:17:04;93470.66;;;1.39;63.03
10261;BME280;5175;42.606;23.388;2023-04-07T04:19:32;93469.06;;;1.50;62.60
10261;BME280;5175;42.606;23.388;2023-04-07T04:21:59;93469.72;;;1.57;64.74
10261;BME280;5175;42.606;23.388;2023-04-07T04:24:26;93474.31;;;1.61;65.64
10261;BME280;5175;42.606;23.388;2023-04-07T04:26:52;93477.88;;;1.20;68.57
10261;BME280;5175;42.606;23.388;2023-04-07T04:29:19;93477.31;;;1.30;68.92
10261;BME280;5175;42.606;23.388;2023-04-07T04:31:46;93475.47;;;1.19;69.60
10261;BME280;5175;42.606;23.388;2023-04-07T04:34:12;93466.69;;;1.02;70.64
10261;BME280;5175;42.606;23.388;2023-04-07T04:36:41;93478.09;;;0.84;71.88
10261;BME280;5175;42.606;23.388;2023-04-07T04:39:08;93468.81;;;0.70;71.84
10261;BME280;5175;42.606;23.388;2023-04-07T04:41:34;93481.84;;;0.88;71.34
10261;BME280;5175;42.606;23.388;2023-04-07T04:44:01;93477.28;;;0.95;71.55
10261;BME280;5175;42.606;23.388;2023-04-07T04:46:28;93469.91;;;1.15;69.73
10261;BME280;5175;42.606;23.388;2023-04-07T04:48:56;93496.16;;;1.39;69.68
10261;BME280;5175;42.606;23.388;2023-04-07T04:51:23;93496.72;;;1.52;68.24
10261;BME280;5175;42.606;23.388;2023-04-07T04:53:51;93495.03;;;1.23;69.31
10261;BME280;5175;42.606;23.388;2023-04-07T04:56:18;93492.03;;;1.19;68.55
10261;BME280;5175;42.606;23.388;2023-04-07T04:58:45;93489.78;;;1.23;68.14
10261;BME280;5175;42.606;23.388;2023-04-07T05:01:12;93480.84;;;1.12;69.38
10261;BME280;5175;42.606;23.388;2023-04-07T05:03:39;93492.59;;;1.21;69.03
10261;BME280;5175;42.606;23.388;2023-04-07T05:06:06;93488.75;;;1.12;70.76
10261;BME280;5175;42.606;23.388;2023-04-07T05:08:33;93496.50;;;1.19;70.80
10261;BME280;5175;42.606;23.388;2023-04-07T05:11:01;93506.22;;;1.53;69.37
10261;BME280;5175;42.606;23.388;2023-04-07T05:13:28;93494.50;;;1.72;69.54
10261;BME280;5175;42.606;23.388;2023-04-07T05:15:55;93506.84;;;1.95;68.60
10261;BME280;5175;42.606;23.388;2023-04-07T05:18:22;93499.50;;;1.97;67.72
10261;BME280;5175;42.606;23.388;2023-04-07T05:20:49;93510.53;;;1.71;67.61
10261;BME280;5175;42.606;23.388;2023-04-07T05:23:15;93503.81;;;2.03;67.18
10261;BME280;5175;42.606;23.388;2023-04-07T05:25:42;93405.34;;;1.71;66.46
10261;BME280;5175;42.606;23.388;2023-04-07T05:28:10;93511.72;;;2.43;67.09
10261;BME280;5175;42.606;23.388;2023-04-07T05:30:37;93513.88;;;2.46;67.45
10261;BME280;5175;42.606;23.388;2023-04-07T05:33:04;93510.28;;;2.52;67.09
10261;BME280;5175;42.606;23.388;2023-04-07T05:35:31;93510.81;;;2.66;67.35
10261;BME280;5175;42.606;23.388;2023-04-07T05:37:57;93509.78;;;2.67;69.03
10261;BME280;5175;42.606;23.388;2023-04-07T05:40:24;93514.88;;;2.73;68.22
10261;BME280;5175;42.606;23.388;2023-04-07T05:42:51;93521.47;;;2.87;67.44
10261;BME280;5175;42.606;23.388;2023-04-07T05:45:19;93519.34;;;2.73;68.50
10261;BME280;5175;42.606;23.388;2023-04-07T05:47:46;93516.03;;;2.94;68.90
10261;BME280;5175;42.606;23.388;2023-04-07T05:50:14;93518.63;;;3.05;68.85
10261;BME280;5175;42.606;23.388;2023-04-07T05:52:41;93517.91;;;3.10;69.61
10261;BME280;5175;42.606;23.388;2023-04-07T05:55:08;93503.75;;;2.99;70.11
10261;BME280;5175;42.606;23.388;2023-04-07T05:57:35;93512.94;;;2.97;70.03
10261;BME280;5175;42.606;23.388;2023-04-07T06:00:02;93522.16;;;2.83;71.70
10261;BME280;5175;42.606;23.388;2023-04-07T06:02:30;93516.19;;;3.04;70.93
10261;BME280;5175;42.606;23.388;2023-04-07T06:04:57;93509.00;;;3.16;70.88
10261;BME280;5175;42.606;23.388;2023-04-07T06:07:24;93518.63;;;3.39;70.15
10261;BME280;5175;42.606;23.388;2023-04-07T06:09:51;93503.91;;;3.09;69.52
10261;BME280;5175;42.606;23.388;2023-04-07T06:12:17;93517.16;;;3.48;69.39
10261;BME280;5175;42.606;23.388;2023-04-07T06:14:49;93495.13;;;3.37;68.61
10261;BME280;5175;42.606;23.388;2023-04-07T06:17:16;93523.13;;;3.76;68.29
10261;BME280;5175;42.606;23.388;2023-04-07T06:19:45;93527.59;;;3.76;66.12
10261;BME280;5175;42.606;23.388;2023-04-07T06:22:11;93524.25;;;4.02;66.01
10261;BME280;5175;42.606;23.388;2023-04-07T06:24:38;93519.56;;;4.26;65.86
10261;BME280;5175;42.606;23.388;2023-04-07T06:27:05;93526.03;;;4.40;63.99
10261;BME280;5175;42.606;23.388;2023-04-07T06:29:32;93521.63;;;4.24;63.54
10261;BME280;5175;42.606;23.388;2023-04-07T06:31:59;93520.88;;;4.50;63.79
10261;BME280;5175;42.606;23.388;2023-04-07T06:34:26;93523.94;;;4.64;62.83
10261;BME280;5175;42.606;23.388;2023-04-07T06:36:55;93523.88;;;4.85;62.01
10261;BME280;5175;42.606;23.388;2023-04-07T06:39:22;93518.09;;;5.15;61.45
10261;BME280;5175;42.606;23.388;2023-04-07T06:41:49;93519.53;;;5.28;60.96
10261;BME280;5175;42.606;23.388;2023-04-07T06:44:16;93517.69;;;5.28;59.42
10261;BME280;5175;42.606;23.388;2023-04-07T06:46:43;93517.59;;;5.55;59.45
10261;BME280;5175;42.606;23.388;2023-04-07T06:49:11;93516.09;;;5.64;59.17
10261;BME280;5175;42.606;23.388;2023-04-07T06:51:38;93485.78;;;5.45;57.86
10261;BME280;5175;42.606;23.388;2023-04-07T06:54:06;93529.53;;;5.89;56.63
10261;BME280;5175;42.606;23.388;2023-04-07T06:56:37;93528.75;;;5.94;55.81
10261;BME280;5175;42.606;23.388;2023-04-07T06:59:03;93527.81;;;6.15;55.93
10261;BME280;5175;42.606;23.388;2023-04-07T07:01:30;93525.19;;;6.20;54.89
10261;BME280;5175;42.606;23.388;2023-04-07T07:03:57;93506.44;;;6.26;56.23
10261;BME280;5175;42.606;23.388;2023-04-07T07:06:24;93530.63;;;6.55;53.18
10261;BME280;5175;42.606;23.388;2023-04-07T07:08:51;93526.22;;;6.76;52.41
10261;BME280;5175;42.606;23.388;2023-04-07T07:11:20;93529.47;;;6.93;52.75
10261;BME280;5175;42.606;23.388;2023-04-07T07:13:46;93541.69;;;7.14;53.39
10261;BME280;5175;42.606;23.388;2023-04-07T07:16:13;93482.75;;;6.77;52.45
10261;BME280;5175;42.606;23.388;2023-04-07T07:18:41;93542.75;;;7.08;52.16
10261;BME280;5175;42.606;23.388;2023-04-07T07:21:08;93539.28;;;7.03;51.81
10261;BME280;5175;42.606;23.388;2023-04-07T07:23:35;93535.06;;;7.32;51.65
10261;BME280;5175;42.606;23.388;2023-04-07T07:26:02;93532.44;;;7.57;51.85
10261;BME280;5175;42.606;23.388;2023-04-07T07:28:30;93545.44;;;7.69;49.26
10261;BME280;5175;42.606;23.388;2023-04-07T07:30:57;93543.31;;;7.81;48.62
10261;BME280;5175;42.606;23.388;2023-04-07T07:33:24;93538.28;;;7.74;50.35
10261;BME280;5175;42.606;23.388;2023-04-07T07:35:50;93558.44;;;7.55;51.25
10261;BME280;5175;42.606;23.388;2023-04-07T07:38:17;93465.00;;;7.53;48.52
10261;BME280;5175;42.606;23.388;2023-04-07T07:40:44;93546.19;;;8.04;48.85
10261;BME280;5175;42.606;23.388;2023-04-07T07:43:11;93543.84;;;7.83;45.95
10261;BME280;5175;42.606;23.388;2023-04-07T07:45:39;93551.28;;;7.96;45.74
10261;BME280;5175;42.606;23.388;2023-04-07T07:48:06;93532.16;;;7.58;44.69
10261;BME280;5175;42.606;23.388;2023-04-07T07:50:33;93544.13;;;7.71;44.47
10261;BME280;5175;42.606;23.388;2023-04-07T07:52:59;93536.16;;;7.61;44.65
10261;BME280;5175;42.606;23.388;2023-04-07T07:55:26;93542.78;;;7.69;44.44
10261;BME280;5175;42.606;23.388;2023-04-07T07:57:53;93543.59;;;7.54;45.23
10261;BME280;5175;42.606;23.388;2023-04-07T08:00:20;93544.63;;;7.48;44.34
10261;BME280;5175;42.606;23.388;2023-04-07T08:02:49;93552.59;;;7.78;44.31
10261;BME280;5175;42.606;23.388;2023-04-07T08:05:16;93525.28;;;7.63;44.36
10261;BME280;5175;42.606;23.388;2023-04-07T08:07:43;93535.34;;;7.91;44.55
10261;BME280;5175;42.606;23.388;2023-04-07T08:10:11;93538.28;;;7.79;43.17
10261;BME280;5175;42.606;23.388;2023-04-07T08:12:38;93533.78;;;7.70;44.15
10261;BME280;5175;42.606;23.388;2023-04-07T08:15:06;93535.84;;;8.03;43.84
10261;BME280;5175;42.606;23.388;2023-04-07T08:17:34;93529.44;;;8.24;42.93
10261;BME280;5175;42.606;23.388;2023-04-07T08:20:03;93534.13;;;8.67;42.87
10261;BME280;5175;42.606;23.388;2023-04-07T08:22:30;93532.47;;;8.76;42.02
10261;BME280;5175;42.606;23.388;2023-04-07T08:24:56;93528.91;;;8.32;42.84
10261;BME280;5175;42.606;23.388;2023-04-07T08:27:23;93539.53;;;8.32;42.89
10261;BME280;5175;42.606;23.388;2023-04-07T08:29:58;93532.06;;;8.44;43.47
10261;BME280;5175;42.606;23.388;2023-04-07T08:32:32;93532.88;;;8.30;43.70
10261;BME280;5175;42.606;23.388;2023-04-07T08:34:59;93543.50;;;8.25;43.03
10261;BME280;5175;42.606;23.388;2023-04-07T08:37:27;93542.16;;;8.52;43.71
10261;BME280;5175;42.606;23.388;2023-04-07T08:39:54;93530.94;;;8.55;42.15
10261;BME280;5175;42.606;23.388;2023-04-07T08:42:22;93544.59;;;8.18;42.88
10261;BME280;5175;42.606;23.388;2023-04-07T08:44:53;93545.19;;;7.90;43.11
10261;BME280;5175;42.606;23.388;2023-04-07T08:47:21;93539.88;;;7.75;44.72
10261;BME280;5175;42.606;23.388;2023-04-07T08:49:51;93535.59;;;7.84;44.01
10261;BME280;5175;42.606;23.388;2023-04-07T08:52:21;93533.22;;;7.88;44.35
10261;BME280;5175;42.606;23.388;2023-04-07T08:54:50;93530.03;;;7.76;43.48
10261;BME280;5175;42.606;23.388;2023-04-07T08:57:17;93542.72;;;8.14;44.33
10261;BME280;5175;42.606;23.388;2023-04-07T08:59:45;93545.41;;;8.19;45.01
10261;BME280;5175;42.606;23.388;2023-04-07T09:02:14;93544.06;;;8.32;44.79
10261;BME280;5175;42.606;23.388;2023-04-07T09:04:42;93523.59;;;8.12;42.67
10261;BME280;5175;42.606;23.388;2023-04-07T09:07:09;93536.41;;;7.90;44.50
10261;BME280;5175;42.606;23.388;2023-04-07T09:09:36;93523.13;;;7.85;43.93
10261;BME280;5175;42.606;23.388;2023-04-07T09:12:05;93543.53;;;8.14;44.52
10261;BME280;5175;42.606;23.388;2023-04-07T09:14:33;93537.69;;;8.28;44.56
10261;BME280;5175;42.606;23.388;2023-04-07T09:17:00;93546.22;;;7.84;43.75
10261;BME280;5175;42.606;23.388;2023-04-07T09:19:27;93547.00;;;8.05;44.43
10261;BME280;5175;42.606;23.388;2023-04-07T09:21:55;93544.56;;;8.44;44.01
10261;BME280;5175;42.606;23.388;2023-04-07T09:24:23;93550.38;;;8.51;42.24
10261;BME280;5175;42.606;23.388;2023-04-07T09:26:50;93542.75;;;8.29;41.52
10261;BME280;5175;42.606;23.388;2023-04-07T09:29:21;93557.59;;;8.20;42.68
10261;BME280;5175;42.606;23.388;2023-04-07T09:31:49;93545.94;;;8.31;43.02
10261;BME280;5175;42.606;23.388;2023-04-07T09:34:27;93545.03;;;8.56;42.49
10261;BME280;5175;42.606;23.388;2023-04-07T09:36:54;93561.25;;;8.64;43.20
10261;BME280;5175;42.606;23.388;2023-04-07T09:39:21;93550.09;;;8.62;42.33
10261;BME280;5175;42.606;23.388;2023-04-07T09:41:48;93555.53;;;8.91;42.95
10261;BME280;5175;42.606;23.388;2023-04-07T09:44:15;93532.31;;;8.48;42.91
10261;BME280;5175;42.606;23.388;2023-04-07T09:46:52;93560.72;;;8.67;43.52
10261;BME280;5175;42.606;23.388;2023-04-07T09:49:20;93552.22;;;8.55;42.63
10261;BME280;5175;42.606;23.388;2023-04-07T09:51:55;93559.59;;;8.73;42.47
10261;BME280;5175;42.606;23.388;2023-04-07T09:54:32;93559.84;;;8.82;43.18
10261;BME280;5175;42.606;23.388;2023-04-07T09:57:00;93566.63;;;9.08;42.26
10261;BME280;5175;42.606;23.388;2023-04-07T09:59:28;93561.50;;;9.27;41.70
10261;BME280;5175;42.606;23.388;2023-04-07T10:01:57;93561.16;;;9.33;42.62
10261;BME280;5175;42.606;23.388;2023-04-07T10:04:24;93501.88;;;8.79;42.94
10261;BME280;5175;42.606;23.388;2023-04-07T10:06:52;93554.81;;;9.29;42.10
10261;BME280;5175;42.606;23.388;2023-04-07T10:09:19;93552.81;;;9.45;42.86
10261;BME280;5175;42.606;23.388;2023-04-07T10:11:48;93563.94;;;9.57;42.00
10261;BME280;5175;42.606;23.388;2023-04-07T10:14:17;93558.25;;;9.30;42.11
10261;BME280;5175;42.606;23.388;2023-04-07T10:16:45;93559.31;;;9.34;41.69
10261;BME280;5175;42.606;23.388;2023-04-07T10:19:13;93544.50;;;9.18;43.25
10261;BME280;5175;42.606;23.388;2023-04-07T10:21:42;93556.16;;;9.22;41.93
10261;BME280;5175;42.606;23.388;2023-04-07T10:24:32;93558.41;;;9.05;43.52
10261;BME280;5175;42.606;23.388;2023-04-07T10:27:06;93558.66;;;9.52;42.54
10261;BME280;5175;42.606;23.388;2023-04-07T10:29:41;93558.84;;;9.94;42.05
10261;BME280;5175;42.606;23.388;2023-04-07T10:32:09;93561.38;;;10.15;41.77
10261;BME280;5175;42.606;23.388;2023-04-07T10:34:59;93570.19;;;9.76;41.57
10261;BME280;5175;42.606;23.388;2023-04-07T10:37:26;93565.56;;;9.53;41.38
10261;BME280;5175;42.606;23.388;2023-04-07T10:40:27;93562.59;;;9.93;42.13
10261;BME280;5175;42.606;23.388;2023-04-07T10:42:54;93554.38;;;9.90;42.21
10261;BME280;5175;42.606;23.388;2023-04-07T10:45:54;93568.53;;;9.47;42.10
10261;BME280;5175;42.606;23.388;2023-04-07T10:48:24;93562.44;;;9.80;42.97
10261;BME280;5175;42.606;23.388;2023-04-07T10:51:13;93569.09;;;9.82;42.06
10261;BME280;5175;42.606;23.388;2023-04-07T10:57:12;93581.66;;;9.77;42.65
10261;BME280;5175;42.606;23.388;2023-04-07T11:02:31;93557.81;;;9.13;44.42
10261;BME280;5175;42.606;23.388;2023-04-07T11:04:59;93560.13;;;9.29;42.79
10261;BME280;5175;42.606;23.388;2023-04-07T11:07:52;93564.47;;;9.15;43.57
10261;BME280;5175;42.606;23.388;2023-04-07T11:10:22;93567.44;;;8.19;43.06
10261;BME280;5175;42.606;23.388;2023-04-07T11:13:03;93568.28;;;7.70;43.99
10261;BME280;5175;42.606;23.388;2023-04-07T11:15:31;93558.69;;;7.99;45.64
10261;BME280;5175;42.606;23.388;2023-04-07T11:18:12;93571.69;;;8.36;45.67
10261;BME280;5175;42.606;23.388;2023-04-07T11:20:44;93566.34;;;8.51;46.00
10261;BME280;5175;42.606;23.388;2023-04-07T11:23:14;93572.09;;;8.83;46.20
10261;BME280;5175;42.606;23.388;2023-04-07T11:25:42;93530.09;;;8.70;45.16
10261;BME280;5175;42.606;23.388;2023-04-07T11:28:10;93577.31;;;9.03;45.44
10261;BME280;5175;42.606;23.388;2023-04-07T11:30:38;93579.56;;;9.25;45.97
10261;BME280;5175;42.606;23.388;2023-04-07T11:33:13;93567.91;;;9.21;47.12
10261;BME280;5175;42.606;23.388;2023-04-07T11:35:55;93579.78;;;9.38;44.92
10261;BME280;5175;42.606;23.388;2023-04-07T11:38:25;93571.44;;;9.55;45.61
10261;BME280;5175;42.606;23.388;2023-04-07T11:40:53;93574.69;;;9.81;45.04
10261;BME280;5175;42.606;23.388;2023-04-07T11:43:21;93570.16;;;9.81;44.80
10261;BME280;5175;42.606;23.388;2023-04-07T11:46:06;93583.44;;;9.48;43.94
10261;BME280;5175;42.606;23.388;2023-04-07T11:48:34;93578.13;;;9.04;45.59
10261;BME280;5175;42.606;23.388;2023-04-07T11:51:02;93579.91;;;9.13;46.54
10261;BME280;5175;42.606;23.388;2023-04-07T11:53:32;93566.78;;;9.66;45.45
10261;BME280;5175;42.606;23.388;2023-04-07T11:56:04;93571.75;;;9.82;43.20
10261;BME280;5175;42.606;23.388;2023-04-07T11:58:32;93573.53;;;9.92;43.46
10261;BME280;5175;42.606;23.388;2023-04-07T12:01:00;93574.25;;;10.02;45.36
10261;BME280;5175;42.606;23.388;2023-04-07T12:03:30;93579.91;;;9.96;44.11
10261;BME280;5175;42.606;23.388;2023-04-07T12:05:57;93577.44;;;9.66;43.75
10261;BME280;5175;42.606;23.388;2023-04-07T12:08:38;93580.53;;;9.44;45.20
10261;BME280;5175;42.606;23.388;2023-04-07T12:11:05;93579.53;;;9.30;45.43
10261;BME280;5175;42.606;23.388;2023-04-07T12:13:32;93573.06;;;9.46;45.45
10261;BME280;5175;42.606;23.388;2023-04-07T12:15:59;93577.56;;;9.51;46.29
10261;BME280;5175;42.606;23.388;2023-04-07T12:18:26;93581.28;;;9.55;46.33
10261;BME280;5175;42.606;23.388;2023-04-07T12:20:54;93573.97;;;9.70;45.46
10261;BME280;5175;42.606;23.388;2023-04-07T12:23:22;93578.94;;;9.43;45.90
10261;BME280;5175;42.606;23.388;2023-04-07T12:25:50;93577.09;;;9.38;46.58
10261;BME280;5175;42.606;23.388;2023-04-07T12:28:17;93582.09;;;9.50;46.84
10261;BME280;5175;42.606;23.388;2023-04-07T12:30:43;93582.13;;;9.45;46.73
10261;BME280;5175;42.606;23.388;2023-04-07T12:33:10;93580.91;;;9.66;46.85
10261;BME280;5175;42.606;23.388;2023-04-07T12:35:37;93587.53;;;9.30;47.20
10261;BME280;5175;42.606;23.388;2023-04-07T12:38:04;93584.88;;;9.30;46.58
10261;BME280;5175;42.606;23.388;2023-04-07T12:40:32;93586.25;;;9.22;47.10
10261;BME280;5175;42.606;23.388;2023-04-07T12:43:01;93582.53;;;9.23;47.89
10261;BME280;5175;42.606;23.388;2023-04-07T12:45:28;93585.31;;;9.47;47.05
10261;BME280;5175;42.606;23.388;2023-04-07T12:47:56;93595.22;;;9.41;47.64
10261;BME280;5175;42.606;23.388;2023-04-07T12:50:23;93586.63;;;9.06;47.45
10261;BME280;5175;42.606;23.388;2023-04-07T12:52:51;93581.38;;;8.86;47.79
10261;BME280;5175;42.606;23.388;2023-04-07T12:55:19;93578.84;;;9.09;49.81
10261;BME280;5175;42.606;23.388;2023-04-07T12:57:46;93581.84;;;9.03;48.20
10261;BME280;5175;42.606;23.388;2023-04-07T13:00:14;93585.16;;;9.28;48.79
10261;BME280;5175;42.606;23.388;2023-04-07T13:02:41;93584.34;;;9.28;47.46
10261;BME280;5175;42.606;23.388;2023-04-07T13:05:09;93589.06;;;9.41;47.25
10261;BME280;5175;42.606;23.388;2023-04-07T13:07:35;93580.34;;;9.30;47.82
10261;BME280;5175;42.606;23.388;2023-04-07T13:10:03;93590.06;;;9.06;47.50
10261;BME280;5175;42.606;23.388;2023-04-07T13:12:31;93589.31;;;8.96;47.32
10261;BME280;5175;42.606;23.388;2023-04-07T13:14:58;93587.97;;;8.98;49.28
10261;BME280;5175;42.606;23.388;2023-04-07T13:17:26;93601.25;;;9.03;48.58
10261;BME280;5175;42.606;23.388;2023-04-07T13:19:54;93597.59;;;8.84;48.45
10261;BME280;5175;42.606;23.388;2023-04-07T13:22:21;93592.22;;;8.94;48.99
10261;BME280;5175;42.606;23.388;2023-04-07T13:24:48;93589.63;;;8.84;49.73